sensor_id;sensor_type;location;lat;lon;timestamp;temperature;humidity
8664;DHT22;4369;47.842;13.096;2023-06-22T00:02:17;20.10;1.00
8664;DHT22;4369;47.842;13.096;2023-06-22T00:04:44;20.10;1.00
8664;DHT22;4369;47.842;13.096;2023-06-22T00:07:12;20.00;1.00
8664;DHT22;4369;47.842;13.096;2023-06-22T00:09:39;20.00;1.00
8664;DHT22;4369;47.842;13.096;2023-06-22T00:12:07;20.00;1.00
8664;DHT22;4369;47.842;13.096;2023-06-22T00:14:34;20.00;10.50
8664;DHT22;4369;47.842;13.096;2023-06-22T00:17:01;20.00;26.60
8664;DHT22;4369;47.842;13.096;2023-06-22T00:19:28;20.00;45.40
8664;DHT22;4369;47.842;13.096;2023-06-22T00:21:55;20.00;64.70
8664;DHT22;4369;47.842;13.096;2023-06-22T00:24:27;20.00;81.80
8664;DHT22;4369;47.842;13.096;2023-06-22T00:26:54;20.00;95.50
8664;DHT22;4369;47.842;13.096;2023-06-22T00:29:20;20.00;98.60
8664;DHT22;4369;47.842;13.096;2023-06-22T00:31:47;20.00;99.90
8664;DHT22;4369;47.842;13.096;2023-06-22T00:34:14;19.90;99.90
8664;DHT22;4369;47.842;13.096;2023-06-22T00:36:42;19.90;99.90
8664;DHT22;4369;47.842;13.096;2023-06-22T00:39:09;19.80;99.90
8664;DHT22;4369;47.842;13.096;2023-06-22T00:41:37;19.80;99.90
8664;DHT22;4369;47.842;13.096;2023-06-22T00:44:04;19.80;99.90
8664;DHT22;4369;47.842;13.096;2023-06-22T00:46:32;19.80;99.90
8664;DHT22;4369;47.842;13.096;2023-06-22T00:48:59;19.90;99.90
8664;DHT22;4369;47.842;13.096;2023-06-22T00:51:26;19.80;99.90
8664;DHT22;4369;47.842;13.096;2023-06-22T00:53:53;19.80;99.90
8664;DHT22;4369;47.842;13.096;2023-06-22T00:56:21;19.80;99.90
8664;DHT22;4369;47.842;13.096;2023-06-22T00:58:51;19.90;99.90
8664;DHT22;4369;47.842;13.096;2023-06-22T01:01:19;19.90;99.90
8664;DHT22;4369;47.842;13.096;2023-06-22T01:03:49;19.90;99.90
8664;DHT22;4369;47.842;13.096;2023-06-22T01:06:21;19.90;99.90
8664;DHT22;4369;47.842;13.096;2023-06-22T01:08:57;19.80;99.90
8664;DHT22;4369;47.842;13.096;2023-06-22T01:11:32;19.90;99.90
8664;DHT22;4369;47.842;13.096;2023-06-22T01:14:10;19.80;99.90
8664;DHT22;4369;47.842;13.096;2023-06-22T01:16:41;19.80;99.90
8664;DHT22;4369;47.842;13.096;2023-06-22T01:19:34;19.80;99.90
8664;DHT22;4369;47.842;13.096;2023-06-22T01:22:02;19.80;99.90
8664;DHT22;4369;47.842;13.096;2023-06-22T01:24:33;19.80;99.90
8664;DHT22;4369;47.842;13.096;2023-06-22T01:27:16;19.80;99.90
8664;DHT22;4369;47.842;13.096;2023-06-22T01:29:49;19.80;99.90
8664;DHT22;4369;47.842;13.096;2023-06-22T01:32:17;19.80;99.90
8664;DHT22;4369;47.842;13.096;2023-06-22T01:34:46;19.80;99.90
8664;DHT22;4369;47.842;13.096;2023-06-22T01:37:13;19.80;99.90
8664;DHT22;4369;47.842;13.096;2023-06-22T01:39:41;19.70;99.90
8664;DHT22;4369;47.842;13.096;2023-06-22T01:42:09;19.70;99.90
8664;DHT22;4369;47.842;13.096;2023-06-22T01:44:36;19.80;99.90
8664;DHT22;4369;47.842;13.096;2023-06-22T01:47:06;19.80;99.90
8664;DHT22;4369;47.842;13.096;2023-06-22T01:49:33;19.90;99.90
8664;DHT22;4369;47.842;13.096;2023-06-22T01:52:00;19.80;99.90
8664;DHT22;4369;47.842;13.096;2023-06-22T01:54:27;19.80;99.90
8664;DHT22;4369;47.842;13.096;2023-06-22T01:56:55;19.80;99.90
8664;DHT22;4369;47.842;13.096;2023-06-22T01:59:26;19.80;99.90
8664;DHT22;4369;47.842;13.096;2023-06-22T02:02:00;19.80;99.90
8664;DHT22;4369;47.842;13.096;2023-06-22T02:04:34;19.70;99.90
8664;DHT22;4369;47.842;13.096;2023-06-22T02:07:07;19.80;99.90
8664;DHT22;4369;47.842;13.096;2023-06-22T02:09:35;19.70;99.90
8664;DHT22;4369;47.842;13.096;2023-06-22T02:12:05;19.70;99.90
8664;DHT22;4369;47.842;13.096;2023-06-22T02:14:34;19.70;99.90
8664;DHT22;4369;47.842;13.096;2023-06-22T02:17:02;19.70;99.90
8664;DHT22;4369;47.842;13.096;2023-06-22T02:19:31;19.70;99.90
8664;DHT22;4369;47.842;13.096;2023-06-22T02:21:58;19.70;99.90
8664;DHT22;4369;47.842;13.096;2023-06-22T02:24:26;19.70;99.90
8664;DHT22;4369;47.842;13.096;2023-06-22T02:26:57;19.70;99.90
8664;DHT22;4369;47.842;13.096;2023-06-22T02:29:24;19.70;99.90
8664;DHT22;4369;47.842;13.096;2023-06-22T02:31:52;19.70;99.90
8664;DHT22;4369;47.842;13.096;2023-06-22T02:34:20;19.70;99.90
8664;DHT22;4369;47.842;13.096;2023-06-22T02:36:49;19.70;99.90
8664;DHT22;4369;47.842;13.096;2023-06-22T02:39:19;19.70;99.90
8664;DHT22;4369;47.842;13.096;2023-06-22T02:41:47;19.70;99.90
8664;DHT22;4369;47.842;13.096;2023-06-22T02:44:14;19.70;99.90
8664;DHT22;4369;47.842;13.096;2023-06-22T02:46:42;19.70;99.90
8664;DHT22;4369;47.842;13.096;2023-06-22T02:49:09;19.70;99.90
8664;DHT22;4369;47.842;13.096;2023-06-22T02:51:38;19.70;99.90
8664;DHT22;4369;47.842;13.096;2023-06-22T02:54:07;19.70;99.90
8664;DHT22;4369;47.842;13.096;2023-06-22T02:56:34;19.70;99.90
8664;DHT22;4369;47.842;13.096;2023-06-22T02:59:02;19.70;99.90
8664;DHT22;4369;47.842;13.096;2023-06-22T03:01:29;19.60;99.90
8664;DHT22;4369;47.842;13.096;2023-06-22T03:04:03;19.70;99.90
8664;DHT22;4369;47.842;13.096;2023-06-22T03:06:30;19.60;99.90
8664;DHT22;4369;47.842;13.096;2023-06-22T03:09:00;19.60;99.90
8664;DHT22;4369;47.842;13.096;2023-06-22T03:11:28;19.60;99.90
8664;DHT22;4369;47.842;13.096;2023-06-22T03:13:55;19.60;99.90
8664;DHT22;4369;47.842;13.096;2023-06-22T03:16:22;19.60;99.90
8664;DHT22;4369;47.842;13.096;2023-06-22T03:18:49;19.60;99.90
8664;DHT22;4369;47.842;13.096;2023-06-22T03:21:16;19.60;99.90
8664;DHT22;4369;47.842;13.096;2023-06-22T03:23:43;19.60;99.90
8664;DHT22;4369;47.842;13.096;2023-06-22T03:26:10;19.60;99.90
8664;DHT22;4369;47.842;13.096;2023-06-22T03:28:38;19.60;99.90
8664;DHT22;4369;47.842;13.096;2023-06-22T03:31:05;19.60;99.90
8664;DHT22;4369;47.842;13.096;2023-06-22T03:33:33;19.60;99.90
8664;DHT22;4369;47.842;13.096;2023-06-22T03:36:00;19.60;99.90
8664;DHT22;4369;47.842;13.096;2023-06-22T03:38:27;19.70;99.90
8664;DHT22;4369;47.842;13.096;2023-06-22T03:40:54;19.80;99.90
8664;DHT22;4369;47.842;13.096;2023-06-22T03:43:20;19.80;99.90
8664;DHT22;4369;47.842;13.096;2023-06-22T03:45:49;19.80;99.90
8664;DHT22;4369;47.842;13.096;2023-06-22T03:48:16;19.90;99.90
8664;DHT22;4369;47.842;13.096;2023-06-22T03:50:43;19.90;99.90
8664;DHT22;4369;47.842;13.096;2023-06-22T03:53:10;19.80;99.90
8664;DHT22;4369;47.842;13.096;2023-06-22T03:55:45;19.90;99.90
8664;DHT22;4369;47.842;13.096;2023-06-22T03:58:14;19.90;99.90
8664;DHT22;4369;47.842;13.096;2023-06-22T04:00:41;19.90;99.90
8664;DHT22;4369;47.842;13.096;2023-06-22T04:03:09;19.90;99.90
8664;DHT22;4369;47.842;13.096;2023-06-22T04:05:38;19.90;99.90
8664;DHT22;4369;47.842;13.096;2023-06-22T04:08:05;20.00;99.90
8664;DHT22;4369;47.842;13.096;2023-06-22T04:10:32;20.00;99.90
8664;DHT22;4369;47.842;13.096;2023-06-22T04:12:59;19.90;99.90
8664;DHT22;4369;47.842;13.096;2023-06-22T04:15:26;19.90;99.90
8664;DHT22;4369;47.842;13.096;2023-06-22T04:17:54;19.90;99.90
8664;DHT22;4369;47.842;13.096;2023-06-22T04:20:23;19.90;99.90
8664;DHT22;4369;47.842;13.096;2023-06-22T04:22:51;19.90;99.90
8664;DHT22;4369;47.842;13.096;2023-06-22T04:25:18;20.00;99.90
8664;DHT22;4369;47.842;13.096;2023-06-22T04:27:45;20.00;99.90
8664;DHT22;4369;47.842;13.096;2023-06-22T04:30:12;20.00;99.90
8664;DHT22;4369;47.842;13.096;2023-06-22T04:32:40;20.10;99.90
8664;DHT22;4369;47.842;13.096;2023-06-22T04:35:08;20.10;99.90
8664;DHT22;4369;47.842;13.096;2023-06-22T04:37:36;20.20;99.90
8664;DHT22;4369;47.842;13.096;2023-06-22T04:40:03;20.30;99.90
8664;DHT22;4369;47.842;13.096;2023-06-22T04:42:34;20.30;99.90
8664;DHT22;4369;47.842;13.096;2023-06-22T04:45:01;20.40;99.90
8664;DHT22;4369;47.842;13.096;2023-06-22T04:47:28;20.40;99.90
8664;DHT22;4369;47.842;13.096;2023-06-22T04:49:54;20.40;99.90
8664;DHT22;4369;47.842;13.096;2023-06-22T04:52:21;20.40;99.90
8664;DHT22;4369;47.842;13.096;2023-06-22T04:54:51;20.50;99.90
8664;DHT22;4369;47.842;13.096;2023-06-22T04:57:21;20.60;99.90
8664;DHT22;4369;47.842;13.096;2023-06-22T04:59:58;20.70;99.90
8664;DHT22;4369;47.842;13.096;2023-06-22T05:02:36;20.70;99.90
8664;DHT22;4369;47.842;13.096;2023-06-22T05:05:03;20.90;99.90
8664;DHT22;4369;47.842;13.096;2023-06-22T05:07:33;20.90;99.90
8664;DHT22;4369;47.842;13.096;2023-06-22T05:10:01;21.00;99.90
8664;DHT22;4369;47.842;13.096;2023-06-22T05:12:29;21.10;99.90
8664;DHT22;4369;47.842;13.096;2023-06-22T05:14:56;21.20;99.90
8664;DHT22;4369;47.842;13.096;2023-06-22T05:17:23;21.30;99.90
8664;DHT22;4369;47.842;13.096;2023-06-22T05:19:50;21.30;99.90
8664;DHT22;4369;47.842;13.096;2023-06-22T05:22:17;21.50;99.90
8664;DHT22;4369;47.842;13.096;2023-06-22T05:24:45;21.50;99.90
8664;DHT22;4369;47.842;13.096;2023-06-22T05:27:13;21.70;99.90
8664;DHT22;4369;47.842;13.096;2023-06-22T05:29:41;21.60;99.90
8664;DHT22;4369;47.842;13.096;2023-06-22T05:32:09;21.60;99.90
8664;DHT22;4369;47.842;13.096;2023-06-22T05:34:36;21.60;99.90
8664;DHT22;4369;47.842;13.096;2023-06-22T05:37:03;21.80;99.90
8664;DHT22;4369;47.842;13.096;2023-06-22T05:39:30;21.80;99.90
8664;DHT22;4369;47.842;13.096;2023-06-22T05:41:57;21.90;99.90
8664;DHT22;4369;47.842;13.096;2023-06-22T05:44:25;22.00;99.90
8664;DHT22;4369;47.842;13.096;2023-06-22T05:46:52;22.20;99.90
8664;DHT22;4369;47.842;13.096;2023-06-22T05:49:19;22.30;99.90
8664;DHT22;4369;47.842;13.096;2023-06-22T05:51:47;22.50;99.90
8664;DHT22;4369;47.842;13.096;2023-06-22T05:54:14;22.50;99.90
8664;DHT22;4369;47.842;13.096;2023-06-22T05:56:43;22.60;99.90
8664;DHT22;4369;47.842;13.096;2023-06-22T05:59:10;22.60;99.90
8664;DHT22;4369;47.842;13.096;2023-06-22T06:01:39;22.70;99.90
8664;DHT22;4369;47.842;13.096;2023-06-22T06:04:06;22.70;99.90
8664;DHT22;4369;47.842;13.096;2023-06-22T06:06:33;22.70;99.90
8664;DHT22;4369;47.842;13.096;2023-06-22T06:09:02;22.70;99.90
8664;DHT22;4369;47.842;13.096;2023-06-22T06:11:29;22.70;99.90
8664;DHT22;4369;47.842;13.096;2023-06-22T06:13:56;22.70;1.00
8664;DHT22;4369;47.842;13.096;2023-06-22T06:16:23;22.70;1.00
8664;DHT22;4369;47.842;13.096;2023-06-22T06:18:52;22.70;1.00
8664;DHT22;4369;47.842;13.096;2023-06-22T06:21:20;22.80;1.00
8664;DHT22;4369;47.842;13.096;2023-06-22T06:23:47;22.90;1.00
8664;DHT22;4369;47.842;13.096;2023-06-22T06:26:14;22.80;1.00
8664;DHT22;4369;47.842;13.096;2023-06-22T06:28:42;22.70;1.00
8664;DHT22;4369;47.842;13.096;2023-06-22T06:31:09;22.70;1.00
8664;DHT22;4369;47.842;13.096;2023-06-22T06:33:37;22.80;1.00
8664;DHT22;4369;47.842;13.096;2023-06-22T06:36:06;22.90;1.00
8664;DHT22;4369;47.842;13.096;2023-06-22T06:38:34;22.90;1.00
8664;DHT22;4369;47.842;13.096;2023-06-22T06:41:00;22.90;1.00
8664;DHT22;4369;47.842;13.096;2023-06-22T06:43:27;22.90;1.00
8664;DHT22;4369;47.842;13.096;2023-06-22T06:45:54;22.90;1.00
8664;DHT22;4369;47.842;13.096;2023-06-22T06:48:21;22.90;1.00
8664;DHT22;4369;47.842;13.096;2023-06-22T06:50:48;23.00;1.00
8664;DHT22;4369;47.842;13.096;2023-06-22T06:53:16;23.20;1.00
8664;DHT22;4369;47.842;13.096;2023-06-22T06:55:43;23.20;1.00
8664;DHT22;4369;47.842;13.096;2023-06-22T06:58:11;23.20;1.00
8664;DHT22;4369;47.842;13.096;2023-06-22T07:00:38;23.30;1.00
8664;DHT22;4369;47.842;13.096;2023-06-22T07:03:05;23.30;1.00
8664;DHT22;4369;47.842;13.096;2023-06-22T07:05:32;23.40;1.00
8664;DHT22;4369;47.842;13.096;2023-06-22T07:07:59;23.50;1.00
8664;DHT22;4369;47.842;13.096;2023-06-22T07:10:28;23.60;1.00
8664;DHT22;4369;47.842;13.096;2023-06-22T07:12:55;23.70;1.00
8664;DHT22;4369;47.842;13.096;2023-06-22T07:15:23;23.70;1.00
8664;DHT22;4369;47.842;13.096;2023-06-22T07:17:50;23.90;1.00
8664;DHT22;4369;47.842;13.096;2023-06-22T07:20:16;23.90;1.00
8664;DHT22;4369;47.842;13.096;2023-06-22T07:22:45;24.00;1.00
8664;DHT22;4369;47.842;13.096;2023-06-22T07:25:12;24.10;1.00
8664;DHT22;4369;47.842;13.096;2023-06-22T07:27:44;24.10;1.00
8664;DHT22;4369;47.842;13.096;2023-06-22T07:30:12;24.10;1.00
8664;DHT22;4369;47.842;13.096;2023-06-22T07:32:40;24.20;1.00
8664;DHT22;4369;47.842;13.096;2023-06-22T07:35:07;24.40;1.00
8664;DHT22;4369;47.842;13.096;2023-06-22T07:37:34;24.50;1.00
8664;DHT22;4369;47.842;13.096;2023-06-22T07:40:01;24.60;1.00
8664;DHT22;4369;47.842;13.096;2023-06-22T07:42:31;24.70;1.00
8664;DHT22;4369;47.842;13.096;2023-06-22T07:45:01;24.60;1.00
8664;DHT22;4369;47.842;13.096;2023-06-22T07:47:28;24.70;1.00
8664;DHT22;4369;47.842;13.096;2023-06-22T07:49:55;24.80;1.00
8664;DHT22;4369;47.842;13.096;2023-06-22T07:52:23;25.00;1.00
8664;DHT22;4369;47.842;13.096;2023-06-22T07:54:51;25.20;1.00
8664;DHT22;4369;47.842;13.096;2023-06-22T07:57:18;25.30;1.00
8664;DHT22;4369;47.842;13.096;2023-06-22T07:59:45;25.40;1.00
8664;DHT22;4369;47.842;13.096;2023-06-22T08:02:13;25.50;1.00
8664;DHT22;4369;47.842;13.096;2023-06-22T08:04:40;25.70;99.90
8664;DHT22;4369;47.842;13.096;2023-06-22T08:07:07;25.80;1.00
8664;DHT22;4369;47.842;13.096;2023-06-22T08:09:35;26.00;1.00
8664;DHT22;4369;47.842;13.096;2023-06-22T08:12:02;26.00;1.00
8664;DHT22;4369;47.842;13.096;2023-06-22T08:14:30;26.20;99.90
8664;DHT22;4369;47.842;13.096;2023-06-22T08:16:57;26.20;99.90
8664;DHT22;4369;47.842;13.096;2023-06-22T08:19:25;26.40;93.90
8664;DHT22;4369;47.842;13.096;2023-06-22T08:21:52;26.60;99.90
8664;DHT22;4369;47.842;13.096;2023-06-22T08:24:18;26.70;12.90
8664;DHT22;4369;47.842;13.096;2023-06-22T08:26:45;26.80;3.00
8664;DHT22;4369;47.842;13.096;2023-06-22T08:29:12;26.90;12.70
8664;DHT22;4369;47.842;13.096;2023-06-22T08:31:40;27.10;1.00
8664;DHT22;4369;47.842;13.096;2023-06-22T08:34:07;27.30;1.00
8664;DHT22;4369;47.842;13.096;2023-06-22T08:36:35;27.30;1.00
8664;DHT22;4369;47.842;13.096;2023-06-22T08:39:07;27.40;1.00
8664;DHT22;4369;47.842;13.096;2023-06-22T08:41:34;27.50;1.00
8664;DHT22;4369;47.842;13.096;2023-06-22T08:44:00;27.50;1.00
8664;DHT22;4369;47.842;13.096;2023-06-22T08:46:28;27.40;1.00
8664;DHT22;4369;47.842;13.096;2023-06-22T08:48:59;27.60;1.00
8664;DHT22;4369;47.842;13.096;2023-06-22T08:51:26;27.90;1.00
8664;DHT22;4369;47.842;13.096;2023-06-22T08:53:55;28.10;1.00
8664;DHT22;4369;47.842;13.096;2023-06-22T08:56:22;28.30;1.00
8664;DHT22;4369;47.842;13.096;2023-06-22T08:58:49;28.40;1.00
8664;DHT22;4369;47.842;13.096;2023-06-22T09:01:16;28.60;1.00
8664;DHT22;4369;47.842;13.096;2023-06-22T09:03:43;28.80;1.00
8664;DHT22;4369;47.842;13.096;2023-06-22T09:06:09;28.90;1.00
8664;DHT22;4369;47.842;13.096;2023-06-22T09:08:36;29.10;1.00
8664;DHT22;4369;47.842;13.096;2023-06-22T09:11:05;29.20;1.00
8664;DHT22;4369;47.842;13.096;2023-06-22T09:13:33;29.40;1.00
8664;DHT22;4369;47.842;13.096;2023-06-22T09:16:00;29.60;1.00
8664;DHT22;4369;47.842;13.096;2023-06-22T09:18:27;29.80;1.00
8664;DHT22;4369;47.842;13.096;2023-06-22T09:20:54;29.90;1.00
8664;DHT22;4369;47.842;13.096;2023-06-22T09:23:21;30.10;1.00
8664;DHT22;4369;47.842;13.096;2023-06-22T09:25:48;30.30;1.00
8664;DHT22;4369;47.842;13.096;2023-06-22T09:28:16;30.40;1.00
8664;DHT22;4369;47.842;13.096;2023-06-22T09:30:43;30.60;1.00
8664;DHT22;4369;47.842;13.096;2023-06-22T09:33:10;30.70;1.00
8664;DHT22;4369;47.842;13.096;2023-06-22T09:35:37;30.90;1.00
8664;DHT22;4369;47.842;13.096;2023-06-22T09:38:04;31.10;1.00
8664;DHT22;4369;47.842;13.096;2023-06-22T09:40:31;31.20;1.00
8664;DHT22;4369;47.842;13.096;2023-06-22T09:43:01;31.20;1.00
8664;DHT22;4369;47.842;13.096;2023-06-22T09:45:29;31.30;1.00
8664;DHT22;4369;47.842;13.096;2023-06-22T09:47:56;31.50;1.00
8664;DHT22;4369;47.842;13.096;2023-06-22T09:50:23;31.70;1.00
8664;DHT22;4369;47.842;13.096;2023-06-22T09:52:50;31.80;1.00
8664;DHT22;4369;47.842;13.096;2023-06-22T09:55:20;31.90;1.00
8664;DHT22;4369;47.842;13.096;2023-06-22T09:57:47;32.00;1.00
8664;DHT22;4369;47.842;13.096;2023-06-22T10:00:15;32.10;1.00
8664;DHT22;4369;47.842;13.096;2023-06-22T10:02:46;32.20;1.00
8664;DHT22;4369;47.842;13.096;2023-06-22T10:05:13;32.30;1.00
8664;DHT22;4369;47.842;13.096;2023-06-22T10:07:40;32.40;1.00
8664;DHT22;4369;47.842;13.096;2023-06-22T10:10:09;32.60;1.00
8664;DHT22;4369;47.842;13.096;2023-06-22T10:12:36;32.90;1.00
8664;DHT22;4369;47.842;13.096;2023-06-22T10:15:04;33.10;1.00
8664;DHT22;4369;47.842;13.096;2023-06-22T10:17:31;33.30;1.00
8664;DHT22;4369;47.842;13.096;2023-06-22T10:19:59;33.40;1.00
8664;DHT22;4369;47.842;13.096;2023-06-22T10:22:31;33.60;1.00
8664;DHT22;4369;47.842;13.096;2023-06-22T10:24:58;33.70;1.00
8664;DHT22;4369;47.842;13.096;2023-06-22T10:27:25;33.80;1.00
8664;DHT22;4369;47.842;13.096;2023-06-22T10:29:51;33.90;1.00
8664;DHT22;4369;47.842;13.096;2023-06-22T10:32:19;34.00;1.00
8664;DHT22;4369;47.842;13.096;2023-06-22T10:34:46;33.80;1.00
8664;DHT22;4369;47.842;13.096;2023-06-22T10:37:14;33.80;1.00
8664;DHT22;4369;47.842;13.096;2023-06-22T10:39:41;33.80;1.00
8664;DHT22;4369;47.842;13.096;2023-06-22T10:42:08;33.80;1.00
8664;DHT22;4369;47.842;13.096;2023-06-22T10:44:35;33.80;1.00
8664;DHT22;4369;47.842;13.096;2023-06-22T10:47:02;33.70;1.00
8664;DHT22;4369;47.842;13.096;2023-06-22T10:49:28;33.80;1.00
8664;DHT22;4369;47.842;13.096;2023-06-22T10:51:55;34.00;1.00
8664;DHT22;4369;47.842;13.096;2023-06-22T10:54:23;34.10;1.00
8664;DHT22;4369;47.842;13.096;2023-06-22T10:56:50;34.30;1.00
8664;DHT22;4369;47.842;13.096;2023-06-22T10:59:17;34.30;1.00
8664;DHT22;4369;47.842;13.096;2023-06-22T11:01:45;34.40;1.00
8664;DHT22;4369;47.842;13.096;2023-06-22T11:04:12;34.50;1.00
8664;DHT22;4369;47.842;13.096;2023-06-22T11:06:39;34.70;1.00
8664;DHT22;4369;47.842;13.096;2023-06-22T11:09:06;34.80;1.00
8664;DHT22;4369;47.842;13.096;2023-06-22T11:11:34;34.80;1.00
8664;DHT22;4369;47.842;13.096;2023-06-22T11:14:01;34.80;1.00
8664;DHT22;4369;47.842;13.096;2023-06-22T11:16:28;34.70;1.00
8664;DHT22;4369;47.842;13.096;2023-06-22T11:18:55;34.80;1.00
8664;DHT22;4369;47.842;13.096;2023-06-22T11:21:22;34.70;1.00
8664;DHT22;4369;47.842;13.096;2023-06-22T11:23:48;34.50;1.00
8664;DHT22;4369;47.842;13.096;2023-06-22T11:26:16;34.40;1.00
8664;DHT22;4369;47.842;13.096;2023-06-22T11:28:44;34.40;1.00
8664;DHT22;4369;47.842;13.096;2023-06-22T11:31:11;34.50;1.00
8664;DHT22;4369;47.842;13.096;2023-06-22T11:33:37;34.60;1.00
8664;DHT22;4369;47.842;13.096;2023-06-22T11:36:05;34.80;1.00
8664;DHT22;4369;47.842;13.096;2023-06-22T11:38:32;35.20;1.00
8664;DHT22;4369;47.842;13.096;2023-06-22T11:40:59;35.30;1.00
8664;DHT22;4369;47.842;13.096;2023-06-22T11:43:26;35.40;1.00
8664;DHT22;4369;47.842;13.096;2023-06-22T11:45:55;35.60;1.00
8664;DHT22;4369;47.842;13.096;2023-06-22T11:48:23;35.60;1.00
8664;DHT22;4369;47.842;13.096;2023-06-22T11:50:50;35.70;1.00
8664;DHT22;4369;47.842;13.096;2023-06-22T11:53:17;35.70;1.00
8664;DHT22;4369;47.842;13.096;2023-06-22T11:55:44;35.90;1.00
8664;DHT22;4369;47.842;13.096;2023-06-22T11:58:11;36.00;1.00
8664;DHT22;4369;47.842;13.096;2023-06-22T12:00:38;36.10;1.00
8664;DHT22;4369;47.842;13.096;2023-06-22T12:03:06;36.20;1.00
8664;DHT22;4369;47.842;13.096;2023-06-22T12:05:33;36.10;1.00
8664;DHT22;4369;47.842;13.096;2023-06-22T12:08:00;36.00;1.00
8664;DHT22;4369;47.842;13.096;2023-06-22T12:10:27;36.10;1.00
8664;DHT22;4369;47.842;13.096;2023-06-22T12:12:54;36.30;1.00
8664;DHT22;4369;47.842;13.096;2023-06-22T12:15:23;36.40;1.00
8664;DHT22;4369;47.842;13.096;2023-06-22T12:17:50;36.50;1.00
8664;DHT22;4369;47.842;13.096;2023-06-22T12:20:19;36.60;1.00
8664;DHT22;4369;47.842;13.096;2023-06-22T12:22:45;36.60;1.00
8664;DHT22;4369;47.842;13.096;2023-06-22T12:25:13;36.60;1.00
8664;DHT22;4369;47.842;13.096;2023-06-22T12:27:40;36.60;1.00
8664;DHT22;4369;47.842;13.096;2023-06-22T12:30:08;36.60;1.00
8664;DHT22;4369;47.842;13.096;2023-06-22T12:32:35;36.70;1.00
8664;DHT22;4369;47.842;13.096;2023-06-22T12:35:02;36.80;1.00
8664;DHT22;4369;47.842;13.096;2023-06-22T12:37:30;36.80;1.00
8664;DHT22;4369;47.842;13.096;2023-06-22T12:39:58;36.90;1.00
8664;DHT22;4369;47.842;13.096;2023-06-22T12:42:25;37.00;1.00
8664;DHT22;4369;47.842;13.096;2023-06-22T12:44:53;37.10;1.00
8664;DHT22;4369;47.842;13.096;2023-06-22T12:47:20;37.10;1.00
8664;DHT22;4369;47.842;13.096;2023-06-22T12:49:47;37.00;1.00
8664;DHT22;4369;47.842;13.096;2023-06-22T12:52:14;37.20;1.00
8664;DHT22;4369;47.842;13.096;2023-06-22T12:54:42;37.10;1.00
8664;DHT22;4369;47.842;13.096;2023-06-22T12:57:09;37.30;1.00
8664;DHT22;4369;47.842;13.096;2023-06-22T12:59:36;37.20;1.00
8664;DHT22;4369;47.842;13.096;2023-06-22T13:02:03;37.30;1.00
8664;DHT22;4369;47.842;13.096;2023-06-22T13:04:30;37.30;1.00
8664;DHT22;4369;47.842;13.096;2023-06-22T13:06:57;37.30;1.00
8664;DHT22;4369;47.842;13.096;2023-06-22T13:09:24;37.20;1.00
8664;DHT22;4369;47.842;13.096;2023-06-22T13:11:52;37.30;1.00
8664;DHT22;4369;47.842;13.096;2023-06-22T13:14:19;37.50;1.00
8664;DHT22;4369;47.842;13.096;2023-06-22T13:16:46;37.70;1.00
8664;DHT22;4369;47.842;13.096;2023-06-22T13:19:13;37.90;1.00
8664;DHT22;4369;47.842;13.096;2023-06-22T13:21:40;38.00;1.00
8664;DHT22;4369;47.842;13.096;2023-06-22T13:24:08;38.00;1.00
8664;DHT22;4369;47.842;13.096;2023-06-22T13:26:35;38.10;1.00
8664;DHT22;4369;47.842;13.096;2023-06-22T13:29:04;38.60;1.00
8664;DHT22;4369;47.842;13.096;2023-06-22T13:31:31;38.90;1.00
8664;DHT22;4369;47.842;13.096;2023-06-22T13:33:58;39.20;1.00
8664;DHT22;4369;47.842;13.096;2023-06-22T13:36:25;39.20;1.00
8664;DHT22;4369;47.842;13.096;2023-06-22T13:38:51;39.60;1.00
8664;DHT22;4369;47.842;13.096;2023-06-22T13:41:18;40.00;1.00
8664;DHT22;4369;47.842;13.096;2023-06-22T13:43:45;40.00;1.00
8664;DHT22;4369;47.842;13.096;2023-06-22T13:46:14;40.10;1.00
8664;DHT22;4369;47.842;13.096;2023-06-22T13:48:41;40.00;1.00
8664;DHT22;4369;47.842;13.096;2023-06-22T13:51:07;40.10;1.00
8664;DHT22;4369;47.842;13.096;2023-06-22T13:53:34;40.20;1.00
8664;DHT22;4369;47.842;13.096;2023-06-22T13:56:01;40.40;1.00
8664;DHT22;4369;47.842;13.096;2023-06-22T13:58:28;40.30;1.00
8664;DHT22;4369;47.842;13.096;2023-06-22T14:00:55;40.50;1.00
8664;DHT22;4369;47.842;13.096;2023-06-22T14:03:23;40.50;1.00
8664;DHT22;4369;47.842;13.096;2023-06-22T14:05:50;40.10;1.00
8664;DHT22;4369;47.842;13.096;2023-06-22T14:08:19;40.30;1.00
8664;DHT22;4369;47.842;13.096;2023-06-22T14:10:49;40.90;1.00
8664;DHT22;4369;47.842;13.096;2023-06-22T14:13:16;41.20;1.00
8664;DHT22;4369;47.842;13.096;2023-06-22T14:15:43;41.70;1.00
8664;DHT22;4369;47.842;13.096;2023-06-22T14:18:09;42.20;1.00
8664;DHT22;4369;47.842;13.096;2023-06-22T14:20:38;42.40;1.00
8664;DHT22;4369;47.842;13.096;2023-06-22T14:23:05;42.50;1.00
8664;DHT22;4369;47.842;13.096;2023-06-22T14:25:32;42.00;1.00
8664;DHT22;4369;47.842;13.096;2023-06-22T14:27:59;41.10;1.00
8664;DHT22;4369;47.842;13.096;2023-06-22T14:30:26;40.70;1.00
8664;DHT22;4369;47.842;13.096;2023-06-22T14:32:52;40.70;1.00
8664;DHT22;4369;47.842;13.096;2023-06-22T14:35:19;41.50;1.00
8664;DHT22;4369;47.842;13.096;2023-06-22T14:37:49;41.80;1.00
8664;DHT22;4369;47.842;13.096;2023-06-22T14:40:16;42.10;1.00
8664;DHT22;4369;47.842;13.096;2023-06-22T14:42:43;41.30;1.00
8664;DHT22;4369;47.842;13.096;2023-06-22T14:45:10;40.60;1.00
8664;DHT22;4369;47.842;13.096;2023-06-22T14:47:37;40.50;1.00
8664;DHT22;4369;47.842;13.096;2023-06-22T14:50:04;39.80;1.00
8664;DHT22;4369;47.842;13.096;2023-06-22T14:52:31;39.30;1.00
8664;DHT22;4369;47.842;13.096;2023-06-22T14:54:59;39.10;1.00
8664;DHT22;4369;47.842;13.096;2023-06-22T14:57:26;39.20;1.00
8664;DHT22;4369;47.842;13.096;2023-06-22T14:59:53;39.30;1.00
8664;DHT22;4369;47.842;13.096;2023-06-22T15:02:21;39.70;1.00
8664;DHT22;4369;47.842;13.096;2023-06-22T15:04:48;40.00;1.00
8664;DHT22;4369;47.842;13.096;2023-06-22T15:07:15;40.10;1.00
8664;DHT22;4369;47.842;13.096;2023-06-22T15:09:42;40.30;1.00
8664;DHT22;4369;47.842;13.096;2023-06-22T15:12:12;40.60;1.00
8664;DHT22;4369;47.842;13.096;2023-06-22T15:14:39;40.90;1.00
8664;DHT22;4369;47.842;13.096;2023-06-22T15:17:06;40.70;1.00
8664;DHT22;4369;47.842;13.096;2023-06-22T15:19:35;40.60;1.00
8664;DHT22;4369;47.842;13.096;2023-06-22T15:22:04;40.40;1.00
8664;DHT22;4369;47.842;13.096;2023-06-22T15:24:31;40.00;1.00
8664;DHT22;4369;47.842;13.096;2023-06-22T15:26:58;39.60;1.00
8664;DHT22;4369;47.842;13.096;2023-06-22T15:29:27;39.30;1.00
8664;DHT22;4369;47.842;13.096;2023-06-22T15:31:59;39.00;1.00
8664;DHT22;4369;47.842;13.096;2023-06-22T15:34:26;39.00;1.00
8664;DHT22;4369;47.842;13.096;2023-06-22T15:36:53;38.90;1.00
8664;DHT22;4369;47.842;13.096;2023-06-22T15:39:20;38.90;1.00
8664;DHT22;4369;47.842;13.096;2023-06-22T15:41:48;38.60;1.00
8664;DHT22;4369;47.842;13.096;2023-06-22T15:44:15;38.60;1.00
8664;DHT22;4369;47.842;13.096;2023-06-22T15:46:43;38.60;1.00
8664;DHT22;4369;47.842;13.096;2023-06-22T15:49:10;38.50;1.00
8664;DHT22;4369;47.842;13.096;2023-06-22T15:51:37;38.30;1.00
8664;DHT22;4369;47.842;13.096;2023-06-22T15:54:04;38.20;1.00
8664;DHT22;4369;47.842;13.096;2023-06-22T15:56:31;38.10;1.00
8664;DHT22;4369;47.842;13.096;2023-06-22T15:58:58;37.90;1.00